sensor_id;sensor_type;location;lat;lon;timestamp;P1;durP1;ratioP1;P2;durP2;ratioP2
78344;SDS011;67620;51.134;6.548;2023-04-24T00:01:39;1.92;;;1.13;;
78344;SDS011;67620;51.134;6.548;2023-04-24T00:04:05;1.92;;;1.00;;
78344;SDS011;67620;51.134;6.548;2023-04-24T00:06:32;2.10;;;1.25;;
78344;SDS011;67620;51.134;6.548;2023-04-24T00:08:59;2.30;;;1.20;;
78344;SDS011;67620;51.134;6.548;2023-04-24T00:11:25;1.58;;;1.38;;
78344;SDS011;67620;51.134;6.548;2023-04-24T00:13:51;5.05;;;1.70;;
78344;SDS011;67620;51.134;6.548;2023-04-24T00:16:17;3.05;;;1.58;;
78344;SDS011;67620;51.134;6.548;2023-04-24T00:18:42;2.00;;;1.52;;
78344;SDS011;67620;51.134;6.548;2023-04-24T00:21:09;2.45;;;1.55;;
78344;SDS011;67620;51.134;6.548;2023-04-24T00:23:35;2.47;;;1.60;;
78344;SDS011;67620;51.134;6.548;2023-04-24T00:26:01;2.80;;;1.63;;
78344;SDS011;67620;51.134;6.548;2023-04-24T00:28:27;8.52;;;2.10;;
78344;SDS011;67620;51.134;6.548;2023-04-24T00:30:52;4.32;;;1.65;;
78344;SDS011;67620;51.134;6.548;2023-04-24T00:33:18;3.20;;;1.60;;
78344;SDS011;67620;51.134;6.548;2023-04-24T00:35:44;2.75;;;1.95;;
78344;SDS011;67620;51.134;6.548;2023-04-24T00:38:09;1.98;;;1.60;;
78344;SDS011;67620;51.134;6.548;2023-04-24T00:40:35;2.88;;;1.45;;
78344;SDS011;67620;51.134;6.548;2023-04-24T00:43:01;3.20;;;1.73;;
78344;SDS011;67620;51.134;6.548;2023-04-24T00:45:26;9.20;;;2.15;;
78344;SDS011;67620;51.134;6.548;2023-04-24T00:47:52;8.77;;;2.03;;
78344;SDS011;67620;51.134;6.548;2023-04-24T00:50:18;4.47;;;2.13;;
78344;SDS011;67620;51.134;6.548;2023-04-24T00:52:44;4.63;;;2.25;;
78344;SDS011;67620;51.134;6.548;2023-04-24T00:55:10;4.93;;;2.38;;
78344;SDS011;67620;51.134;6.548;2023-04-24T00:57:36;4.70;;;2.47;;
78344;SDS011;67620;51.134;6.548;2023-04-24T01:00:03;5.28;;;2.33;;
78344;SDS011;67620;51.134;6.548;2023-04-24T01:02:30;4.72;;;3.20;;
78344;SDS011;67620;51.134;6.548;2023-04-24T01:04:59;5.07;;;3.63;;
78344;SDS011;67620;51.134;6.548;2023-04-24T01:07:25;11.55;;;4.03;;
78344;SDS011;67620;51.134;6.548;2023-04-24T01:12:18;6.15;;;3.80;;
78344;SDS011;67620;51.134;6.548;2023-04-24T01:14:44;9.68;;;4.72;;
78344;SDS011;67620;51.134;6.548;2023-04-24T01:19:36;7.03;;;5.00;;
78344;SDS011;67620;51.134;6.548;2023-04-24T01:22:02;9.32;;;4.90;;
78344;SDS011;67620;51.134;6.548;2023-04-24T01:24:33;8.45;;;4.93;;
78344;SDS011;67620;51.134;6.548;2023-04-24T01:26:59;9.27;;;4.85;;
78344;SDS011;67620;51.134;6.548;2023-04-24T01:29:26;10.95;;;5.45;;
78344;SDS011;67620;51.134;6.548;2023-04-24T01:31:51;8.45;;;5.50;;
78344;SDS011;67620;51.134;6.548;2023-04-24T01:34:17;13.45;;;6.35;;
78344;SDS011;67620;51.134;6.548;2023-04-24T01:36:43;10.55;;;6.30;;
78344;SDS011;67620;51.134;6.548;2023-04-24T01:39:11;12.85;;;6.40;;
78344;SDS011;67620;51.134;6.548;2023-04-24T01:41:37;10.45;;;6.32;;
78344;SDS011;67620;51.134;6.548;2023-04-24T01:44:02;11.60;;;6.90;;
78344;SDS011;67620;51.134;6.548;2023-04-24T01:46:28;11.88;;;6.90;;
78344;SDS011;67620;51.134;6.548;2023-04-24T01:48:56;11.52;;;7.05;;
78344;SDS011;67620;51.134;6.548;2023-04-24T01:51:24;11.27;;;7.13;;
78344;SDS011;67620;51.134;6.548;2023-04-24T01:53:50;16.35;;;7.72;;
78344;SDS011;67620;51.134;6.548;2023-04-24T01:56:15;11.70;;;7.20;;
78344;SDS011;67620;51.134;6.548;2023-04-24T01:58:41;10.00;;;6.43;;
78344;SDS011;67620;51.134;6.548;2023-04-24T02:01:07;14.82;;;7.80;;
78344;SDS011;67620;51.134;6.548;2023-04-24T02:03:33;12.85;;;7.15;;
78344;SDS011;67620;51.134;6.548;2023-04-24T02:05:58;12.25;;;6.80;;
78344;SDS011;67620;51.134;6.548;2023-04-24T02:08:24;11.07;;;6.80;;
78344;SDS011;67620;51.134;6.548;2023-04-24T02:10:50;14.00;;;7.70;;
78344;SDS011;67620;51.134;6.548;2023-04-24T02:13:15;14.23;;;7.82;;
78344;SDS011;67620;51.134;6.548;2023-04-24T02:15:41;15.32;;;8.52;;
78344;SDS011;67620;51.134;6.548;2023-04-24T02:18:06;13.63;;;8.45;;
78344;SDS011;67620;51.134;6.548;2023-04-24T02:20:32;13.38;;;7.78;;
78344;SDS011;67620;51.134;6.548;2023-04-24T02:23:00;14.20;;;8.43;;
78344;SDS011;67620;51.134;6.548;2023-04-24T02:25:26;15.25;;;8.30;;
78344;SDS011;67620;51.134;6.548;2023-04-24T02:27:51;12.98;;;8.57;;
78344;SDS011;67620;51.134;6.548;2023-04-24T02:30:17;11.48;;;7.63;;
78344;SDS011;67620;51.134;6.548;2023-04-24T02:32:42;17.35;;;8.73;;
78344;SDS011;67620;51.134;6.548;2023-04-24T02:35:08;15.90;;;8.82;;
78344;SDS011;67620;51.134;6.548;2023-04-24T02:37:33;16.77;;;8.90;;
78344;SDS011;67620;51.134;6.548;2023-04-24T02:39:59;15.05;;;8.90;;
78344;SDS011;67620;51.134;6.548;2023-04-24T02:42:25;15.25;;;8.88;;
78344;SDS011;67620;51.134;6.548;2023-04-24T02:44:50;13.77;;;8.25;;
78344;SDS011;67620;51.134;6.548;2023-04-24T02:47:16;12.77;;;8.07;;
78344;SDS011;67620;51.134;6.548;2023-04-24T02:49:41;16.70;;;8.93;;
78344;SDS011;67620;51.134;6.548;2023-04-24T02:52:07;12.25;;;7.68;;
78344;SDS011;67620;51.134;6.548;2023-04-24T02:54:32;11.32;;;7.43;;
78344;SDS011;67620;51.134;6.548;2023-04-24T02:56:58;11.38;;;7.20;;
78344;SDS011;67620;51.134;6.548;2023-04-24T02:59:24;11.32;;;7.35;;
78344;SDS011;67620;51.134;6.548;2023-04-24T03:01:52;15.35;;;8.13;;
78344;SDS011;67620;51.134;6.548;2023-04-24T03:04:17;13.27;;;8.02;;
78344;SDS011;67620;51.134;6.548;2023-04-24T03:06:45;10.25;;;6.68;;
78344;SDS011;67620;51.134;6.548;2023-04-24T03:09:11;13.35;;;7.53;;
78344;SDS011;67620;51.134;6.548;2023-04-24T03:11:36;13.52;;;7.93;;
78344;SDS011;67620;51.134;6.548;2023-04-24T03:14:02;15.73;;;7.82;;
78344;SDS011;67620;51.134;6.548;2023-04-24T03:16:27;17.45;;;8.35;;
78344;SDS011;67620;51.134;6.548;2023-04-24T03:18:53;14.48;;;7.57;;
78344;SDS011;67620;51.134;6.548;2023-04-24T03:21:18;14.23;;;7.93;;
78344;SDS011;67620;51.134;6.548;2023-04-24T03:23:44;16.70;;;8.20;;
78344;SDS011;67620;51.134;6.548;2023-04-24T03:26:09;13.25;;;8.73;;
78344;SDS011;67620;51.134;6.548;2023-04-24T03:28:35;12.30;;;7.22;;
78344;SDS011;67620;51.134;6.548;2023-04-24T03:31:00;13.18;;;7.82;;
78344;SDS011;67620;51.134;6.548;2023-04-24T03:33:27;13.85;;;8.43;;
78344;SDS011;67620;51.134;6.548;2023-04-24T03:35:53;19.60;;;8.30;;
78344;SDS011;67620;51.134;6.548;2023-04-24T03:38:18;12.73;;;7.78;;
78344;SDS011;67620;51.134;6.548;2023-04-24T03:40:44;11.35;;;7.72;;
78344;SDS011;67620;51.134;6.548;2023-04-24T03:43:09;15.43;;;8.13;;
78344;SDS011;67620;51.134;6.548;2023-04-24T03:45:35;12.68;;;7.30;;
78344;SDS011;67620;51.134;6.548;2023-04-24T03:48:00;15.15;;;8.00;;
78344;SDS011;67620;51.134;6.548;2023-04-24T03:50:26;14.27;;;8.50;;
78344;SDS011;67620;51.134;6.548;2023-04-24T03:52:51;13.73;;;8.18;;
78344;SDS011;67620;51.134;6.548;2023-04-24T03:55:17;12.60;;;8.25;;
78344;SDS011;67620;51.134;6.548;2023-04-24T03:57:43;12.13;;;7.60;;
78344;SDS011;67620;51.134;6.548;2023-04-24T04:00:08;10.65;;;7.68;;
78344;SDS011;67620;51.134;6.548;2023-04-24T04:05:00;12.85;;;7.88;;
78344;SDS011;67620;51.134;6.548;2023-04-24T04:07:25;11.77;;;7.68;;
78344;SDS011;67620;51.134;6.548;2023-04-24T04:09:51;14.52;;;8.15;;
78344;SDS011;67620;51.134;6.548;2023-04-24T04:12:16;13.38;;;7.47;;
78344;SDS011;67620;51.134;6.548;2023-04-24T04:14:42;16.48;;;8.18;;
78344;SDS011;67620;51.134;6.548;2023-04-24T04:17:07;11.45;;;7.22;;
78344;SDS011;67620;51.134;6.548;2023-04-24T04:19:33;11.30;;;7.03;;
78344;SDS011;67620;51.134;6.548;2023-04-24T04:21:58;14.07;;;7.35;;
78344;SDS011;67620;51.134;6.548;2023-04-24T04:24:24;11.95;;;7.55;;
78344;SDS011;67620;51.134;6.548;2023-04-24T04:26:51;10.10;;;6.80;;
78344;SDS011;67620;51.134;6.548;2023-04-24T04:29:17;11.90;;;7.20;;
78344;SDS011;67620;51.134;6.548;2023-04-24T04:31:45;11.43;;;6.68;;
78344;SDS011;67620;51.134;6.548;2023-04-24T04:34:11;11.80;;;7.18;;
78344;SDS011;67620;51.134;6.548;2023-04-24T04:36:37;14.57;;;6.38;;
78344;SDS011;67620;51.134;6.548;2023-04-24T04:39:04;10.27;;;6.53;;
78344;SDS011;67620;51.134;6.548;2023-04-24T04:41:30;9.98;;;6.82;;
78344;SDS011;67620;51.134;6.548;2023-04-24T04:43:56;12.27;;;6.97;;
78344;SDS011;67620;51.134;6.548;2023-04-24T04:46:23;9.50;;;6.03;;
78344;SDS011;67620;51.134;6.548;2023-04-24T04:48:50;9.43;;;5.95;;
78344;SDS011;67620;51.134;6.548;2023-04-24T04:53:42;9.73;;;6.30;;
78344;SDS011;67620;51.134;6.548;2023-04-24T04:56:08;12.07;;;6.45;;
78344;SDS011;67620;51.134;6.548;2023-04-24T04:58:33;11.48;;;5.55;;
78344;SDS011;67620;51.134;6.548;2023-04-24T05:00:59;12.20;;;7.32;;
78344;SDS011;67620;51.134;6.548;2023-04-24T05:03:24;9.68;;;6.18;;
78344;SDS011;67620;51.134;6.548;2023-04-24T05:05:50;12.93;;;6.57;;
78344;SDS011;67620;51.134;6.548;2023-04-24T05:08:15;11.05;;;6.88;;
78344;SDS011;67620;51.134;6.548;2023-04-24T05:10:41;9.82;;;6.32;;
78344;SDS011;67620;51.134;6.548;2023-04-24T05:13:07;33.15;;;17.27;;
78344;SDS011;67620;51.134;6.548;2023-04-24T05:15:32;9.77;;;6.47;;
78344;SDS011;67620;51.134;6.548;2023-04-24T05:17:58;9.75;;;6.07;;
78344;SDS011;67620;51.134;6.548;2023-04-24T05:20:23;10.18;;;6.30;;
78344;SDS011;67620;51.134;6.548;2023-04-24T05:22:49;8.18;;;5.70;;
78344;SDS011;67620;51.134;6.548;2023-04-24T05:25:15;11.63;;;5.80;;
78344;SDS011;67620;51.134;6.548;2023-04-24T05:27:40;9.02;;;6.13;;
78344;SDS011;67620;51.134;6.548;2023-04-24T05:30:06;8.68;;;6.55;;
78344;SDS011;67620;51.134;6.548;2023-04-24T05:32:32;9.77;;;6.32;;
78344;SDS011;67620;51.134;6.548;2023-04-24T05:34:58;8.32;;;5.57;;
78344;SDS011;67620;51.134;6.548;2023-04-24T05:37:23;9.23;;;5.20;;
78344;SDS011;67620;51.134;6.548;2023-04-24T05:39:49;9.27;;;5.68;;
78344;SDS011;67620;51.134;6.548;2023-04-24T05:42:14;10.27;;;5.75;;
78344;SDS011;67620;51.134;6.548;2023-04-24T05:44:40;9.38;;;5.72;;
78344;SDS011;67620;51.134;6.548;2023-04-24T05:47:05;8.70;;;5.70;;
78344;SDS011;67620;51.134;6.548;2023-04-24T05:49:31;9.68;;;5.38;;
78344;SDS011;67620;51.134;6.548;2023-04-24T05:51:56;7.18;;;4.90;;
78344;SDS011;67620;51.134;6.548;2023-04-24T05:54:22;10.05;;;5.35;;
78344;SDS011;67620;51.134;6.548;2023-04-24T05:56:48;8.25;;;5.05;;
78344;SDS011;67620;51.134;6.548;2023-04-24T05:59:15;7.10;;;4.22;;
78344;SDS011;67620;51.134;6.548;2023-04-24T06:01:40;9.15;;;4.88;;
78344;SDS011;67620;51.134;6.548;2023-04-24T06:04:06;9.35;;;5.32;;
78344;SDS011;67620;51.134;6.548;2023-04-24T06:06:32;7.13;;;4.95;;
78344;SDS011;67620;51.134;6.548;2023-04-24T06:08:58;6.40;;;4.30;;
78344;SDS011;67620;51.134;6.548;2023-04-24T06:11:23;9.00;;;4.65;;
78344;SDS011;67620;51.134;6.548;2023-04-24T06:13:49;7.32;;;4.68;;
78344;SDS011;67620;51.134;6.548;2023-04-24T06:16:15;6.25;;;4.60;;
78344;SDS011;67620;51.134;6.548;2023-04-24T06:18:40;6.03;;;4.50;;
78344;SDS011;67620;51.134;6.548;2023-04-24T06:21:06;7.57;;;3.95;;
78344;SDS011;67620;51.134;6.548;2023-04-24T06:23:32;7.00;;;4.57;;
78344;SDS011;67620;51.134;6.548;2023-04-24T06:25:58;9.50;;;4.32;;
78344;SDS011;67620;51.134;6.548;2023-04-24T06:30:49;7.32;;;4.40;;
78344;SDS011;67620;51.134;6.548;2023-04-24T06:33:15;5.63;;;3.95;;
78344;SDS011;67620;51.134;6.548;2023-04-24T06:38:07;8.18;;;4.18;;
78344;SDS011;67620;51.134;6.548;2023-04-24T06:40:32;7.82;;;4.03;;
78344;SDS011;67620;51.134;6.548;2023-04-24T06:42:58;6.70;;;3.40;;
78344;SDS011;67620;51.134;6.548;2023-04-24T06:45:25;8.02;;;4.05;;
78344;SDS011;67620;51.134;6.548;2023-04-24T06:47:50;5.65;;;3.67;;
78344;SDS011;67620;51.134;6.548;2023-04-24T06:50:16;5.55;;;3.30;;
78344;SDS011;67620;51.134;6.548;2023-04-24T06:52:42;4.03;;;2.65;;
78344;SDS011;67620;51.134;6.548;2023-04-24T06:55:08;6.60;;;3.25;;
78344;SDS011;67620;51.134;6.548;2023-04-24T06:57:33;4.25;;;2.80;;
78344;SDS011;67620;51.134;6.548;2023-04-24T06:59:59;4.22;;;2.75;;
78344;SDS011;67620;51.134;6.548;2023-04-24T07:02:25;6.50;;;3.30;;
78344;SDS011;67620;51.134;6.548;2023-04-24T07:04:50;3.92;;;2.38;;
78344;SDS011;67620;51.134;6.548;2023-04-24T07:07:16;4.32;;;2.50;;
78344;SDS011;67620;51.134;6.548;2023-04-24T07:09:41;4.45;;;2.35;;
78344;SDS011;67620;51.134;6.548;2023-04-24T07:12:07;3.20;;;1.95;;
78344;SDS011;67620;51.134;6.548;2023-04-24T07:14:33;4.07;;;2.30;;
78344;SDS011;67620;51.134;6.548;2023-04-24T07:16:59;4.32;;;2.03;;
78344;SDS011;67620;51.134;6.548;2023-04-24T07:19:24;5.70;;;2.47;;
78344;SDS011;67620;51.134;6.548;2023-04-24T07:21:50;2.17;;;0.95;;
78344;SDS011;67620;51.134;6.548;2023-04-24T07:24:15;1.05;;;0.57;;
78344;SDS011;67620;51.134;6.548;2023-04-24T07:26:41;3.30;;;0.70;;
78344;SDS011;67620;51.134;6.548;2023-04-24T07:29:07;1.27;;;0.50;;
78344;SDS011;67620;51.134;6.548;2023-04-24T07:33:58;0.47;;;0.28;;
78344;SDS011;67620;51.134;6.548;2023-04-24T07:36:24;2.20;;;0.40;;
78344;SDS011;67620;51.134;6.548;2023-04-24T07:38:50;0.63;;;0.35;;
78344;SDS011;67620;51.134;6.548;2023-04-24T07:41:17;1.60;;;0.30;;
78344;SDS011;67620;51.134;6.548;2023-04-24T07:43:42;0.60;;;0.30;;
78344;SDS011;67620;51.134;6.548;2023-04-24T07:46:09;1.90;;;0.30;;
78344;SDS011;67620;51.134;6.548;2023-04-24T07:48:34;0.20;;;0.20;;
78344;SDS011;67620;51.134;6.548;2023-04-24T07:51:01;1.30;;;0.40;;
78344;SDS011;67620;51.134;6.548;2023-04-24T07:53:26;0.90;;;0.45;;
78344;SDS011;67620;51.134;6.548;2023-04-24T07:55:52;2.08;;;0.60;;
78344;SDS011;67620;51.134;6.548;2023-04-24T07:58:20;2.47;;;0.85;;
78344;SDS011;67620;51.134;6.548;2023-04-24T08:00:46;2.40;;;0.80;;
78344;SDS011;67620;51.134;6.548;2023-04-24T08:03:11;2.67;;;1.73;;
78344;SDS011;67620;51.134;6.548;2023-04-24T08:05:37;4.15;;;1.83;;
78344;SDS011;67620;51.134;6.548;2023-04-24T08:08:03;3.08;;;2.20;;
78344;SDS011;67620;51.134;6.548;2023-04-24T08:10:28;5.10;;;2.65;;
78344;SDS011;67620;51.134;6.548;2023-04-24T08:12:54;4.28;;;2.88;;
78344;SDS011;67620;51.134;6.548;2023-04-24T08:15:20;6.32;;;3.47;;
78344;SDS011;67620;51.134;6.548;2023-04-24T08:17:46;4.53;;;2.92;;
78344;SDS011;67620;51.134;6.548;2023-04-24T08:20:11;5.10;;;2.95;;
78344;SDS011;67620;51.134;6.548;2023-04-24T08:22:39;6.75;;;3.22;;
78344;SDS011;67620;51.134;6.548;2023-04-24T08:25:08;6.43;;;3.35;;
78344;SDS011;67620;51.134;6.548;2023-04-24T08:27:35;4.88;;;3.00;;
78344;SDS011;67620;51.134;6.548;2023-04-24T08:30:02;5.55;;;3.33;;
78344;SDS011;67620;51.134;6.548;2023-04-24T08:32:28;7.07;;;3.58;;
78344;SDS011;67620;51.134;6.548;2023-04-24T08:34:54;4.30;;;2.92;;
78344;SDS011;67620;51.134;6.548;2023-04-24T08:37:21;6.20;;;2.90;;
78344;SDS011;67620;51.134;6.548;2023-04-24T08:42:13;5.88;;;3.67;;
78344;SDS011;67620;51.134;6.548;2023-04-24T08:44:40;5.50;;;3.42;;
78344;SDS011;67620;51.134;6.548;2023-04-24T08:47:06;7.35;;;3.70;;
78344;SDS011;67620;51.134;6.548;2023-04-24T08:49:33;7.32;;;3.72;;
78344;SDS011;67620;51.134;6.548;2023-04-24T08:52:00;6.05;;;3.80;;
78344;SDS011;67620;51.134;6.548;2023-04-24T08:54:27;9.40;;;4.22;;
78344;SDS011;67620;51.134;6.548;2023-04-24T08:56:53;7.32;;;3.70;;
78344;SDS011;67620;51.134;6.548;2023-04-24T08:59:25;7.40;;;3.65;;
78344;SDS011;67620;51.134;6.548;2023-04-24T09:01:51;7.88;;;4.30;;
78344;SDS011;67620;51.134;6.548;2023-04-24T09:04:17;5.90;;;3.63;;
78344;SDS011;67620;51.134;6.548;2023-04-24T09:06:46;8.00;;;3.22;;
78344;SDS011;67620;51.134;6.548;2023-04-24T09:09:13;5.72;;;3.33;;
78344;SDS011;67620;51.134;6.548;2023-04-24T09:11:41;8.27;;;3.60;;
78344;SDS011;67620;51.134;6.548;2023-04-24T09:14:07;7.28;;;4.00;;
78344;SDS011;67620;51.134;6.548;2023-04-24T09:16:34;8.23;;;4.68;;
78344;SDS011;67620;51.134;6.548;2023-04-24T09:19:00;5.80;;;4.00;;
78344;SDS011;67620;51.134;6.548;2023-04-24T09:21:30;7.20;;;3.97;;
78344;SDS011;67620;51.134;6.548;2023-04-24T09:24:00;10.63;;;4.60;;
78344;SDS011;67620;51.134;6.548;2023-04-24T09:26:30;9.07;;;4.78;;
78344;SDS011;67620;51.134;6.548;2023-04-24T09:28:57;9.25;;;4.45;;
78344;SDS011;67620;51.134;6.548;2023-04-24T09:31:22;11.80;;;5.18;;
78344;SDS011;67620;51.134;6.548;2023-04-24T09:33:55;9.73;;;5.07;;
78344;SDS011;67620;51.134;6.548;2023-04-24T09:36:26;11.52;;;5.10;;
78344;SDS011;67620;51.134;6.548;2023-04-24T09:38:59;12.65;;;5.57;;
78344;SDS011;67620;51.134;6.548;2023-04-24T09:41:26;10.68;;;5.75;;
78344;SDS011;67620;51.134;6.548;2023-04-24T09:43:53;10.82;;;5.55;;
78344;SDS011;67620;51.134;6.548;2023-04-24T09:46:20;7.50;;;4.72;;
78344;SDS011;67620;51.134;6.548;2023-04-24T09:48:47;10.20;;;5.13;;
78344;SDS011;67620;51.134;6.548;2023-04-24T09:51:13;11.00;;;5.80;;
78344;SDS011;67620;51.134;6.548;2023-04-24T09:53:44;13.50;;;5.95;;
78344;SDS011;67620;51.134;6.548;2023-04-24T09:56:11;14.45;;;5.57;;
78344;SDS011;67620;51.134;6.548;2023-04-24T09:58:37;9.40;;;5.38;;
78344;SDS011;67620;51.134;6.548;2023-04-24T10:01:04;13.02;;;5.38;;
78344;SDS011;67620;51.134;6.548;2023-04-24T10:03:30;13.63;;;5.82;;
78344;SDS011;67620;51.134;6.548;2023-04-24T10:06:00;10.95;;;5.40;;
78344;SDS011;67620;51.134;6.548;2023-04-24T10:08:27;12.75;;;5.22;;
78344;SDS011;67620;51.134;6.548;2023-04-24T10:10:59;10.50;;;5.50;;
78344;SDS011;67620;51.134;6.548;2023-04-24T10:13:25;11.80;;;5.10;;
78344;SDS011;67620;51.134;6.548;2023-04-24T10:15:51;8.65;;;4.70;;
78344;SDS011;67620;51.134;6.548;2023-04-24T10:18:17;8.02;;;4.50;;
78344;SDS011;67620;51.134;6.548;2023-04-24T10:20:45;10.55;;;4.45;;
78344;SDS011;67620;51.134;6.548;2023-04-24T10:23:11;6.75;;;3.97;;
78344;SDS011;67620;51.134;6.548;2023-04-24T10:25:37;10.63;;;4.28;;
78344;SDS011;67620;51.134;6.548;2023-04-24T10:28:03;9.32;;;4.00;;
78344;SDS011;67620;51.134;6.548;2023-04-24T10:32:55;7.75;;;3.85;;
78344;SDS011;67620;51.134;6.548;2023-04-24T10:35:21;7.07;;;3.42;;
78344;SDS011;67620;51.134;6.548;2023-04-24T10:37:54;8.82;;;3.50;;
78344;SDS011;67620;51.134;6.548;2023-04-24T10:40:30;11.57;;;3.72;;
78344;SDS011;67620;51.134;6.548;2023-04-24T10:43:01;8.90;;;3.70;;
78344;SDS011;67620;51.134;6.548;2023-04-24T10:45:31;9.55;;;3.65;;
78344;SDS011;67620;51.134;6.548;2023-04-24T10:47:57;6.38;;;3.45;;
78344;SDS011;67620;51.134;6.548;2023-04-24T10:50:26;9.13;;;3.90;;
78344;SDS011;67620;51.134;6.548;2023-04-24T10:52:53;16.98;;;4.63;;
78344;SDS011;67620;51.134;6.548;2023-04-24T10:58:15;9.73;;;3.75;;
78344;SDS011;67620;51.134;6.548;2023-04-24T11:00:54;9.45;;;3.38;;
78344;SDS011;67620;51.134;6.548;2023-04-24T11:03:25;10.75;;;3.50;;
78344;SDS011;67620;51.134;6.548;2023-04-24T11:05:57;10.27;;;3.67;;
78344;SDS011;67620;51.134;6.548;2023-04-24T11:08:23;9.38;;;3.38;;
78344;SDS011;67620;51.134;6.548;2023-04-24T11:19:11;52.90;;;29.08;;
78344;SDS011;67620;51.134;6.548;2023-04-24T11:21:59;11.90;;;4.93;;
78344;SDS011;67620;51.134;6.548;2023-04-24T11:25:12;9.57;;;4.07;;
78344;SDS011;67620;51.134;6.548;2023-04-24T11:27:19;13.68;;;4.32;;
78344;SDS011;67620;51.134;6.548;2023-04-24T11:32:14;12.70;;;4.40;;
78344;SDS011;67620;51.134;6.548;2023-04-24T11:34:51;10.75;;;4.00;;
78344;SDS011;67620;51.134;6.548;2023-04-24T11:37:18;9.00;;;3.75;;
78344;SDS011;67620;51.134;6.548;2023-04-24T11:39:44;8.00;;;3.38;;
78344;SDS011;67620;51.134;6.548;2023-04-24T11:42:10;9.65;;;3.17;;
78344;SDS011;67620;51.134;6.548;2023-04-24T11:44:38;10.18;;;3.40;;
78344;SDS011;67620;51.134;6.548;2023-04-24T11:47:06;7.15;;;2.72;;
78344;SDS011;67620;51.134;6.548;2023-04-24T11:49:37;11.48;;;3.90;;
78344;SDS011;67620;51.134;6.548;2023-04-24T11:52:03;7.18;;;3.38;;
78344;SDS011;67620;51.134;6.548;2023-04-24T11:54:30;5.50;;;2.63;;
78344;SDS011;67620;51.134;6.548;2023-04-24T11:56:56;9.52;;;3.30;;
78344;SDS011;67620;51.134;6.548;2023-04-24T11:59:22;4.22;;;2.58;;
78344;SDS011;67620;51.134;6.548;2023-04-24T12:01:48;4.38;;;2.38;;
78344;SDS011;67620;51.134;6.548;2023-04-24T12:04:15;11.98;;;3.25;;
78344;SDS011;67620;51.134;6.548;2023-04-24T12:09:27;5.68;;;2.22;;
78344;SDS011;67620;51.134;6.548;2023-04-24T12:11:56;12.50;;;3.10;;
78344;SDS011;67620;51.134;6.548;2023-04-24T12:14:24;5.68;;;2.65;;
78344;SDS011;67620;51.134;6.548;2023-04-24T12:16:50;6.03;;;2.53;;
78344;SDS011;67620;51.134;6.548;2023-04-24T12:19:22;4.80;;;2.22;;
78344;SDS011;67620;51.134;6.548;2023-04-24T12:22:05;9.30;;;2.75;;
78344;SDS011;67620;51.134;6.548;2023-04-24T12:24:31;7.15;;;2.65;;
78344;SDS011;67620;51.134;6.548;2023-04-24T12:26:57;6.72;;;2.47;;
78344;SDS011;67620;51.134;6.548;2023-04-24T12:31:49;5.55;;;2.25;;
78344;SDS011;67620;51.134;6.548;2023-04-24T12:34:22;4.03;;;1.90;;
78344;SDS011;67620;51.134;6.548;2023-04-24T12:36:49;5.15;;;2.15;;
78344;SDS011;67620;51.134;6.548;2023-04-24T12:39:19;5.15;;;1.80;;
78344;SDS011;67620;51.134;6.548;2023-04-24T12:41:49;4.43;;;1.95;;
78344;SDS011;67620;51.134;6.548;2023-04-24T12:44:19;6.82;;;1.70;;
78344;SDS011;67620;51.134;6.548;2023-04-24T14:21:10;7.50;;;2.00;;
78344;SDS011;67620;51.134;6.548;2023-04-24T14:23:36;5.72;;;1.90;;
78344;SDS011;67620;51.134;6.548;2023-04-24T14:26:02;4.00;;;2.00;;
78344;SDS011;67620;51.134;6.548;2023-04-24T14:28:27;5.32;;;1.85;;
78344;SDS011;67620;51.134;6.548;2023-04-24T14:30:53;15.13;;;7.82;;
78344;SDS011;67620;51.134;6.548;2023-04-24T14:55:01;4.85;;;1.48;;
78344;SDS011;67620;51.134;6.548;2023-04-24T14:57:27;5.40;;;1.65;;
78344;SDS011;67620;51.134;6.548;2023-04-24T14:59:53;3.97;;;1.60;;
78344;SDS011;67620;51.134;6.548;2023-04-24T15:02:18;3.25;;;1.48;;
78344;SDS011;67620;51.134;6.548;2023-04-24T15:04:44;6.30;;;1.77;;
78344;SDS011;67620;51.134;6.548;2023-04-24T15:07:09;4.95;;;1.98;;
78344;SDS011;67620;51.134;6.548;2023-04-24T15:09:35;3.53;;;1.88;;
78344;SDS011;67620;51.134;6.548;2023-04-24T15:12:00;10.20;;;7.10;;
78344;SDS011;67620;51.134;6.548;2023-04-24T15:14:26;5.15;;;1.83;;
78344;SDS011;67620;51.134;6.548;2023-04-24T15:16:53;4.95;;;1.80;;
78344;SDS011;67620;51.134;6.548;2023-04-24T15:19:19;3.58;;;2.00;;
78344;SDS011;67620;51.134;6.548;2023-04-24T15:21:44;5.45;;;2.03;;
78344;SDS011;67620;51.134;6.548;2023-04-24T15:24:10;3.95;;;1.65;;
78344;SDS011;67620;51.134;6.548;2023-04-24T15:26:42;4.03;;;2.00;;
78344;SDS011;67620;51.134;6.548;2023-04-24T15:29:08;4.95;;;1.90;;
78344;SDS011;67620;51.134;6.548;2023-04-24T15:31:33;3.10;;;1.60;;
78344;SDS011;67620;51.134;6.548;2023-04-24T15:33:59;3.45;;;1.65;;
78344;SDS011;67620;51.134;6.548;2023-04-24T15:36:24;2.67;;;1.80;;
78344;SDS011;67620;51.134;6.548;2023-04-24T15:38:50;2.60;;;1.40;;
78344;SDS011;67620;51.134;6.548;2023-04-24T15:41:15;4.80;;;1.70;;
78344;SDS011;67620;51.134;6.548;2023-04-24T15:43:41;3.35;;;1.52;;
78344;SDS011;67620;51.134;6.548;2023-04-24T15:46:07;3.30;;;1.80;;
78344;SDS011;67620;51.134;6.548;2023-04-24T15:48:34;2.65;;;1.63;;
78344;SDS011;67620;51.134;6.548;2023-04-24T15:51:00;3.80;;;2.30;;
78344;SDS011;67620;51.134;6.548;2023-04-24T15:53:26;4.63;;;1.80;;
78344;SDS011;67620;51.134;6.548;2023-04-24T15:55:52;5.72;;;1.35;;
78344;SDS011;67620;51.134;6.548;2023-04-24T15:58:21;5.13;;;1.58;;
78344;SDS011;67620;51.134;6.548;2023-04-24T16:00:47;5.78;;;1.85;;
78344;SDS011;67620;51.134;6.548;2023-04-24T16:03:13;3.90;;;1.67;;
78344;SDS011;67620;51.134;6.548;2023-04-24T16:05:39;4.88;;;1.80;;
78344;SDS011;67620;51.134;6.548;2023-04-24T16:08:04;8.43;;;1.70;;
78344;SDS011;67620;51.134;6.548;2023-04-24T16:10:30;4.95;;;1.80;;
78344;SDS011;67620;51.134;6.548;2023-04-24T16:15:22;3.65;;;1.67;;
78344;SDS011;67620;51.134;6.548;2023-04-24T16:17:48;7.25;;;4.38;;
78344;SDS011;67620;51.134;6.548;2023-04-24T16:20:14;8.05;;;4.65;;
78344;SDS011;67620;51.134;6.548;2023-04-24T16:25:06;3.70;;;1.70;;
78344;SDS011;67620;51.134;6.548;2023-04-24T16:27:32;2.38;;;1.50;;
78344;SDS011;67620;51.134;6.548;2023-04-24T16:29:58;4.47;;;2.17;;
78344;SDS011;67620;51.134;6.548;2023-04-24T16:32:24;3.58;;;1.77;;
78344;SDS011;67620;51.134;6.548;2023-04-24T16:34:50;20.65;;;10.88;;
78344;SDS011;67620;51.134;6.548;2023-04-24T16:37:16;7.03;;;3.65;;
78344;SDS011;67620;51.134;6.548;2023-04-24T16:39:41;4.30;;;2.10;;
78344;SDS011;67620;51.134;6.548;2023-04-24T16:42:10;3.63;;;1.77;;
78344;SDS011;67620;51.134;6.548;2023-04-24T16:44:39;6.57;;;2.03;;
78344;SDS011;67620;51.134;6.548;2023-04-24T16:47:06;4.00;;;1.90;;
78344;SDS011;67620;51.134;6.548;2023-04-24T16:49:33;2.80;;;1.30;;
78344;SDS011;67620;51.134;6.548;2023-04-24T16:51:59;3.83;;;1.80;;
78344;SDS011;67620;51.134;6.548;2023-04-24T16:54:25;3.10;;;1.40;;
78344;SDS011;67620;51.134;6.548;2023-04-24T16:56:51;2.97;;;1.40;;
78344;SDS011;67620;51.134;6.548;2023-04-24T16:59:17;3.47;;;1.35;;
78344;SDS011;67620;51.134;6.548;2023-04-24T17:01:43;4.63;;;1.50;;
78344;SDS011;67620;51.134;6.548;2023-04-24T17:04:08;5.15;;;1.45;;
78344;SDS011;67620;51.134;6.548;2023-04-24T17:06:34;5.95;;;1.90;;
78344;SDS011;67620;51.134;6.548;2023-04-24T17:08:59;6.88;;;1.85;;
78344;SDS011;67620;51.134;6.548;2023-04-24T17:11:25;6.03;;;1.92;;
78344;SDS011;67620;51.134;6.548;2023-04-24T17:16:17;4.18;;;1.52;;
78344;SDS011;67620;51.134;6.548;2023-04-24T17:18:42;4.00;;;1.55;;
78344;SDS011;67620;51.134;6.548;2023-04-24T17:21:08;5.50;;;1.63;;
78344;SDS011;67620;51.134;6.548;2023-04-24T17:23:33;3.72;;;2.25;;